RYR0599 LEVC-GCTS
Flight info
| Callsign | RYR0599 |
|---|---|
| Flight time | 3h 12m |
| Altitude | 37000 |
| Route | NARGO N860 RESTU N851 VJF L82 RUNAX UL82 IBALU UN857 TERTO TERTO2U |
| Aircraft | B38M/M-SDE1FGHILORVWXY/HB1 |
Departure
| Time | 2026-04-29 11:03 |
|---|---|
| Airport | Valencia Airport (LEVC) |
Arrival
| Time | 2026-04-29 14:16 |
|---|---|
| Airport | Tenerife Sur Airport (GCTS) |
| Time | Latitude | Longitude | Altitude | Speed | Heading |
|---|---|---|---|---|---|
| 2026-04-29 11:02 | 39.49400 | -0.49378 | 211 ft | 0 kts | 123° |
| 2026-04-29 11:02 | 39.49397 | -0.49372 | 211 ft | 5 kts | 123° |
| 2026-04-29 11:02 | 39.49304 | -0.49136 | 216 ft | 66 kts | 116° |
| 2026-04-29 11:03 | 39.48989 | -0.48301 | 216 ft | 138 kts | 116° |
| 2026-04-29 11:03 | 39.48495 | -0.47066 | 622 ft | 166 kts | 117° |
| 2026-04-29 11:03 | 39.47971 | -0.45758 | 1491 ft | 163 kts | 115° |
| 2026-04-29 11:03 | 39.47454 | -0.44449 | 2340 ft | 170 kts | 118° |
| 2026-04-29 11:04 | 39.46617 | -0.43261 | 3082 ft | 185 kts | 138° |
| 2026-04-29 11:04 | 39.45572 | -0.42167 | 3781 ft | 203 kts | 141° |
| 2026-04-29 11:04 | 39.44514 | -0.40829 | 4414 ft | 224 kts | 124° |
| 2026-04-29 11:04 | 39.43630 | -0.39045 | 5055 ft | 245 kts | 124° |
| 2026-04-29 11:05 | 39.42661 | -0.37136 | 5775 ft | 264 kts | 124° |
| 2026-04-29 11:05 | 39.41634 | -0.35134 | 6685 ft | 271 kts | 125° |
| 2026-04-29 11:05 | 39.40588 | -0.33103 | 7743 ft | 274 kts | 126° |
| 2026-04-29 11:05 | 39.39324 | -0.31224 | 8578 ft | 282 kts | 149° |
| 2026-04-29 11:06 | 39.37506 | -0.30474 | 9657 ft | 276 kts | 181° |
| 2026-04-29 11:06 | 39.35648 | -0.31078 | 10410 ft | 283 kts | 212° |
| 2026-04-29 11:06 | 39.34250 | -0.32918 | 10949 ft | 299 kts | 240° |
| 2026-04-29 11:06 | 39.33246 | -0.35332 | 11540 ft | 312 kts | 239° |
| 2026-04-29 11:07 | 39.32163 | -0.37817 | 12185 ft | 322 kts | 242° |
| 2026-04-29 11:07 | 39.31290 | -0.40479 | 13144 ft | 323 kts | 250° |
| 2026-04-29 11:07 | 39.30684 | -0.43310 | 13898 ft | 331 kts | 256° |
| 2026-04-29 11:07 | 39.30354 | -0.46264 | 14661 ft | 334 kts | 263° |
| 2026-04-29 11:08 | 39.30309 | -0.49289 | 15364 ft | 341 kts | 270° |
| 2026-04-29 11:08 | 39.30319 | -0.52336 | 16069 ft | 341 kts | 258° |
| 2026-04-29 11:08 | 39.29474 | -0.55155 | 16761 ft | 339 kts | 232° |
| 2026-04-29 11:08 | 39.27785 | -0.57269 | 17436 ft | 340 kts | 215° |
| 2026-04-29 11:09 | 39.25697 | -0.58738 | 18091 ft | 344 kts | 202° |
| 2026-04-29 11:09 | 39.23432 | -0.59736 | 18692 ft | 347 kts | 197° |
| 2026-04-29 11:09 | 39.21106 | -0.60637 | 19250 ft | 351 kts | 200° |
| 2026-04-29 11:09 | 39.19060 | -0.62310 | 19811 ft | 353 kts | 226° |
| 2026-04-29 11:10 | 39.17518 | -0.64798 | 20328 ft | 358 kts | 228° |
| 2026-04-29 11:10 | 39.15646 | -0.66931 | 20853 ft | 359 kts | 216° |
| 2026-04-29 11:10 | 39.13613 | -0.68826 | 21377 ft | 364 kts | 214° |
| 2026-04-29 11:10 | 39.11494 | -0.70657 | 21874 ft | 368 kts | 212° |
| 2026-04-29 11:11 | 39.09357 | -0.72413 | 22422 ft | 371 kts | 212° |
| 2026-04-29 11:11 | 39.07126 | -0.74194 | 22917 ft | 375 kts | 211° |
| 2026-04-29 11:11 | 39.04917 | -0.75933 | 23430 ft | 378 kts | 211° |
| 2026-04-29 11:11 | 39.02654 | -0.77696 | 23859 ft | 381 kts | 211° |
| 2026-04-29 11:12 | 39.00381 | -0.79456 | 24296 ft | 384 kts | 211° |
| 2026-04-29 11:12 | 38.98080 | -0.81234 | 24717 ft | 386 kts | 211° |
| 2026-04-29 11:12 | 38.95766 | -0.83019 | 25128 ft | 389 kts | 211° |
| 2026-04-29 11:12 | 38.93438 | -0.84813 | 25564 ft | 392 kts | 211° |
| 2026-04-29 11:13 | 38.91091 | -0.86621 | 25991 ft | 394 kts | 211° |
| 2026-04-29 11:13 | 38.88734 | -0.88434 | 26391 ft | 397 kts | 211° |
| 2026-04-29 11:13 | 38.86357 | -0.90261 | 26772 ft | 400 kts | 211° |
| 2026-04-29 11:13 | 38.83963 | -0.92100 | 27161 ft | 403 kts | 211° |
| 2026-04-29 11:14 | 38.81553 | -0.93950 | 27538 ft | 405 kts | 211° |
| 2026-04-29 11:14 | 38.79126 | -0.95812 | 27909 ft | 408 kts | 211° |
| 2026-04-29 11:14 | 38.76678 | -0.97687 | 28281 ft | 411 kts | 211° |
| 2026-04-29 11:14 | 38.74210 | -0.99562 | 28626 ft | 413 kts | 209° |
| 2026-04-29 11:15 | 38.71659 | -1.01279 | 28982 ft | 416 kts | 208° |
| 2026-04-29 11:15 | 38.69093 | -1.03011 | 29337 ft | 418 kts | 208° |
| 2026-04-29 11:15 | 38.66512 | -1.04764 | 29670 ft | 421 kts | 208° |
| 2026-04-29 11:15 | 38.63913 | -1.06532 | 30004 ft | 424 kts | 208° |
| 2026-04-29 11:16 | 38.61311 | -1.08302 | 30292 ft | 426 kts | 208° |
| 2026-04-29 11:16 | 38.58716 | -1.10066 | 30566 ft | 428 kts | 208° |
| 2026-04-29 11:16 | 38.56043 | -1.11883 | 30863 ft | 430 kts | 208° |
| 2026-04-29 11:16 | 38.53401 | -1.13676 | 31135 ft | 433 kts | 208° |
| 2026-04-29 11:17 | 38.50768 | -1.15462 | 31414 ft | 435 kts | 209° |
| 2026-04-29 11:17 | 38.48086 | -1.17279 | 31676 ft | 437 kts | 209° |
| 2026-04-29 11:17 | 38.45400 | -1.19097 | 31938 ft | 439 kts | 209° |
| 2026-04-29 11:17 | 38.42695 | -1.20927 | 32215 ft | 441 kts | 209° |
| 2026-04-29 11:18 | 38.39983 | -1.22760 | 32474 ft | 443 kts | 209° |
| 2026-04-29 11:18 | 38.37241 | -1.24612 | 32745 ft | 445 kts | 209° |
| 2026-04-29 11:18 | 38.34504 | -1.26458 | 33021 ft | 447 kts | 209° |
| 2026-04-29 11:18 | 38.31755 | -1.28312 | 33362 ft | 447 kts | 209° |
| 2026-04-29 11:19 | 38.29011 | -1.30160 | 33753 ft | 446 kts | 209° |
| 2026-04-29 11:19 | 38.26273 | -1.32003 | 34089 ft | 445 kts | 209° |
| 2026-04-29 11:19 | 38.23533 | -1.33845 | 34406 ft | 445 kts | 209° |
| 2026-04-29 11:19 | 38.20802 | -1.35679 | 34712 ft | 444 kts | 209° |
| 2026-04-29 11:20 | 38.18073 | -1.37511 | 35043 ft | 442 kts | 209° |
| 2026-04-29 11:20 | 38.15366 | -1.39327 | 35356 ft | 441 kts | 208° |
| 2026-04-29 11:20 | 38.12649 | -1.41147 | 35639 ft | 440 kts | 208° |
| 2026-04-29 11:20 | 38.09945 | -1.42958 | 35922 ft | 439 kts | 208° |
| 2026-04-29 11:21 | 38.07250 | -1.44762 | 36207 ft | 438 kts | 208° |
| 2026-04-29 11:21 | 38.04548 | -1.46568 | 36495 ft | 437 kts | 208° |
| 2026-04-29 11:21 | 38.01901 | -1.48335 | 36756 ft | 436 kts | 208° |
| 2026-04-29 11:21 | 37.99215 | -1.50128 | 36928 ft | 436 kts | 208° |
| 2026-04-29 11:22 | 37.96539 | -1.51913 | 36929 ft | 434 kts | 208° |
| 2026-04-29 11:22 | 37.91530 | -1.56050 | 36932 ft | 429 kts | 229° |
| 2026-04-29 11:22 | 37.89810 | -1.59111 | 36936 ft | 429 kts | 242° |
| 2026-04-29 11:23 | 37.88423 | -1.62475 | 36930 ft | 430 kts | 243° |
| 2026-04-29 11:23 | 37.85772 | -1.69243 | 36925 ft | 430 kts | 244° |
| 2026-04-29 11:24 | 37.83193 | -1.76066 | 36928 ft | 430 kts | 244° |
| 2026-04-29 11:24 | 37.80634 | -1.82891 | 36927 ft | 429 kts | 245° |
| 2026-04-29 11:25 | 37.78075 | -1.89714 | 36934 ft | 429 kts | 245° |
| 2026-04-29 11:25 | 37.75536 | -1.96468 | 36935 ft | 428 kts | 245° |
| 2026-04-29 11:26 | 37.71697 | -2.06649 | 36936 ft | 427 kts | 245° |
| 2026-04-29 11:26 | 37.69137 | -2.13421 | 36937 ft | 427 kts | 244° |
| 2026-04-29 11:27 | 37.66573 | -2.20189 | 36936 ft | 426 kts | 244° |
| 2026-04-29 11:27 | 37.64015 | -2.26926 | 36936 ft | 426 kts | 244° |
| 2026-04-29 11:28 | 37.61451 | -2.33663 | 36940 ft | 425 kts | 245° |
| 2026-04-29 11:28 | 37.58890 | -2.40379 | 36937 ft | 425 kts | 245° |
| 2026-04-29 11:29 | 37.56328 | -2.47081 | 36931 ft | 424 kts | 245° |
| 2026-04-29 11:29 | 37.53765 | -2.53771 | 36932 ft | 424 kts | 245° |
| 2026-04-29 11:30 | 37.51201 | -2.60451 | 36929 ft | 423 kts | 245° |
| 2026-04-29 11:30 | 37.48638 | -2.67116 | 36927 ft | 423 kts | 245° |
| 2026-04-29 11:31 | 37.46089 | -2.73727 | 36928 ft | 422 kts | 245° |
| 2026-04-29 11:31 | 37.43519 | -2.80379 | 36925 ft | 422 kts | 245° |
| 2026-04-29 11:32 | 37.40948 | -2.87021 | 36918 ft | 422 kts | 245° |
| 2026-04-29 11:32 | 37.38376 | -2.93650 | 36919 ft | 422 kts | 245° |
| 2026-04-29 11:33 | 37.35802 | -3.00271 | 36922 ft | 421 kts | 245° |
| 2026-04-29 11:33 | 37.33232 | -3.06866 | 36923 ft | 421 kts | 245° |
| 2026-04-29 11:34 | 37.30655 | -3.13466 | 36929 ft | 420 kts | 245° |
| 2026-04-29 11:34 | 37.28079 | -3.20050 | 36932 ft | 419 kts | 245° |
| 2026-04-29 11:35 | 37.25509 | -3.26606 | 36937 ft | 419 kts | 245° |
| 2026-04-29 11:35 | 37.22933 | -3.33161 | 36947 ft | 418 kts | 245° |
| 2026-04-29 11:36 | 37.20361 | -3.39694 | 36955 ft | 417 kts | 245° |
| 2026-04-29 11:36 | 37.17787 | -3.46216 | 36960 ft | 417 kts | 245° |
| 2026-04-29 11:37 | 37.15241 | -3.52659 | 36962 ft | 415 kts | 245° |
| 2026-04-29 11:37 | 37.12686 | -3.59106 | 36965 ft | 415 kts | 245° |
| 2026-04-29 11:38 | 37.10124 | -3.65560 | 36965 ft | 414 kts | 245° |
| 2026-04-29 11:38 | 37.07561 | -3.72005 | 36969 ft | 413 kts | 244° |
| 2026-04-29 11:39 | 37.04993 | -3.78446 | 36938 ft | 412 kts | 244° |
| 2026-04-29 11:39 | 37.02441 | -3.84838 | 36944 ft | 406 kts | 245° |
| 2026-04-29 11:40 | 36.99955 | -3.91047 | 36936 ft | 396 kts | 245° |
| 2026-04-29 11:40 | 36.97486 | -3.97206 | 36935 ft | 396 kts | 245° |
| 2026-04-29 11:41 | 36.95014 | -4.03358 | 36933 ft | 396 kts | 245° |
| 2026-04-29 11:41 | 36.92537 | -4.09513 | 36934 ft | 395 kts | 245° |
| 2026-04-29 11:42 | 36.90083 | -4.15602 | 36930 ft | 395 kts | 245° |
| 2026-04-29 11:42 | 36.87612 | -4.21721 | 36934 ft | 395 kts | 245° |
| 2026-04-29 11:43 | 36.85135 | -4.27844 | 36932 ft | 395 kts | 245° |
| 2026-04-29 11:43 | 36.82651 | -4.33950 | 36935 ft | 395 kts | 243° |
| 2026-04-29 11:44 | 36.81000 | -4.36695 | 36931 ft | 399 kts | 226° |
| 2026-04-29 11:44 | 36.78779 | -4.38818 | 36945 ft | 406 kts | 220° |
| 2026-04-29 11:44 | 36.74069 | -4.42759 | 36937 ft | 408 kts | 218° |
| 2026-04-29 11:45 | 36.69311 | -4.46593 | 36940 ft | 408 kts | 218° |
| 2026-04-29 11:45 | 36.64529 | -4.50396 | 36941 ft | 408 kts | 218° |
| 2026-04-29 11:46 | 36.59740 | -4.54193 | 36933 ft | 408 kts | 218° |
| 2026-04-29 11:46 | 36.55753 | -4.57347 | 36949 ft | 408 kts | 218° |
| 2026-04-29 11:47 | 36.50970 | -4.61128 | 36938 ft | 408 kts | 218° |
| 2026-04-29 11:47 | 36.46186 | -4.64903 | 36922 ft | 407 kts | 218° |
| 2026-04-29 11:48 | 36.41405 | -4.68670 | 36923 ft | 407 kts | 218° |
| 2026-04-29 11:48 | 36.36620 | -4.72434 | 36935 ft | 407 kts | 218° |
| 2026-04-29 11:49 | 36.31838 | -4.76191 | 36938 ft | 407 kts | 218° |
| 2026-04-29 11:49 | 36.27063 | -4.79938 | 36934 ft | 406 kts | 218° |
| 2026-04-29 11:50 | 36.22289 | -4.83677 | 36936 ft | 406 kts | 218° |
| 2026-04-29 11:50 | 36.17510 | -4.87416 | 36937 ft | 406 kts | 218° |
| 2026-04-29 11:51 | 36.12752 | -4.91169 | 36939 ft | 405 kts | 218° |
| 2026-04-29 11:51 | 36.08003 | -4.94928 | 36942 ft | 405 kts | 218° |
| 2026-04-29 11:52 | 36.03247 | -4.98686 | 36939 ft | 405 kts | 218° |
| 2026-04-29 11:52 | 35.98497 | -5.02434 | 36937 ft | 405 kts | 218° |
| 2026-04-29 11:53 | 35.93745 | -5.06177 | 36939 ft | 405 kts | 218° |
| 2026-04-29 11:53 | 35.89003 | -5.09907 | 36934 ft | 404 kts | 218° |
| 2026-04-29 11:54 | 35.84261 | -5.13634 | 36937 ft | 404 kts | 218° |
| 2026-04-29 11:54 | 35.79797 | -5.17766 | 36933 ft | 401 kts | 222° |
| 2026-04-29 11:55 | 35.75336 | -5.21904 | 36936 ft | 401 kts | 221° |
| 2026-04-29 11:55 | 35.70875 | -5.26012 | 36935 ft | 401 kts | 221° |
| 2026-04-29 11:56 | 35.66403 | -5.30121 | 36936 ft | 401 kts | 221° |
| 2026-04-29 11:56 | 35.61934 | -5.34221 | 36937 ft | 401 kts | 221° |
| 2026-04-29 11:57 | 35.57465 | -5.38315 | 36946 ft | 401 kts | 221° |
| 2026-04-29 11:57 | 35.52993 | -5.42406 | 36932 ft | 400 kts | 221° |
| 2026-04-29 11:58 | 35.48529 | -5.46485 | 36943 ft | 401 kts | 221° |
| 2026-04-29 11:58 | 35.44054 | -5.50568 | 36954 ft | 400 kts | 221° |
| 2026-04-29 11:59 | 35.39590 | -5.54634 | 36935 ft | 400 kts | 221° |
| 2026-04-29 11:59 | 35.35124 | -5.58697 | 36945 ft | 400 kts | 221° |
| 2026-04-29 12:00 | 35.30647 | -5.62764 | 36940 ft | 400 kts | 221° |
| 2026-04-29 12:00 | 35.26176 | -5.66819 | 36933 ft | 400 kts | 221° |
| 2026-04-29 12:01 | 35.21701 | -5.70872 | 36949 ft | 400 kts | 221° |
| 2026-04-29 12:01 | 35.17262 | -5.74887 | 36957 ft | 400 kts | 220° |
| 2026-04-29 12:02 | 35.12790 | -5.78927 | 36955 ft | 400 kts | 220° |
| 2026-04-29 12:02 | 35.08312 | -5.82967 | 36939 ft | 400 kts | 220° |
| 2026-04-29 12:03 | 35.03825 | -5.87008 | 36939 ft | 401 kts | 220° |
| 2026-04-29 12:03 | 34.99334 | -5.91048 | 36937 ft | 401 kts | 220° |
| 2026-04-29 12:04 | 34.94840 | -5.95085 | 36940 ft | 401 kts | 220° |
| 2026-04-29 12:04 | 34.90357 | -5.99106 | 36936 ft | 401 kts | 220° |
| 2026-04-29 12:05 | 34.85856 | -6.03138 | 36935 ft | 402 kts | 220° |
| 2026-04-29 12:05 | 34.81433 | -6.07093 | 36941 ft | 402 kts | 220° |
| 2026-04-29 12:06 | 34.76927 | -6.11119 | 36935 ft | 402 kts | 220° |
| 2026-04-29 12:06 | 34.72451 | -6.15113 | 36933 ft | 402 kts | 220° |
| 2026-04-29 12:07 | 34.67938 | -6.19133 | 36937 ft | 402 kts | 220° |
| 2026-04-29 12:07 | 34.63435 | -6.23139 | 36934 ft | 402 kts | 220° |
| 2026-04-29 12:08 | 34.58918 | -6.27151 | 36933 ft | 402 kts | 220° |
| 2026-04-29 12:08 | 34.54428 | -6.31135 | 36934 ft | 402 kts | 220° |
| 2026-04-29 12:09 | 34.49917 | -6.35131 | 36932 ft | 402 kts | 220° |
| 2026-04-29 12:09 | 34.45420 | -6.39110 | 36935 ft | 402 kts | 220° |
| 2026-04-29 12:10 | 34.40942 | -6.43066 | 36935 ft | 403 kts | 220° |
| 2026-04-29 12:10 | 34.36417 | -6.47059 | 36936 ft | 402 kts | 219° |
| 2026-04-29 12:11 | 34.31898 | -6.51041 | 36934 ft | 403 kts | 219° |
| 2026-04-29 12:11 | 34.27359 | -6.55034 | 36934 ft | 403 kts | 219° |
| 2026-04-29 12:12 | 34.22864 | -6.58984 | 36949 ft | 403 kts | 219° |
| 2026-04-29 12:12 | 34.18331 | -6.62964 | 36947 ft | 403 kts | 219° |
| 2026-04-29 12:13 | 34.13795 | -6.66940 | 36944 ft | 403 kts | 219° |
| 2026-04-29 12:13 | 34.09263 | -6.70907 | 36938 ft | 403 kts | 219° |
| 2026-04-29 12:14 | 34.04692 | -6.74834 | 36933 ft | 404 kts | 217° |
| 2026-04-29 12:14 | 34.00004 | -6.78562 | 36939 ft | 404 kts | 217° |
| 2026-04-29 12:15 | 33.95330 | -6.82304 | 36934 ft | 404 kts | 217° |
| 2026-04-29 12:15 | 33.90646 | -6.86054 | 36931 ft | 404 kts | 217° |
| 2026-04-29 12:16 | 33.85966 | -6.89796 | 36940 ft | 404 kts | 217° |
| 2026-04-29 12:16 | 33.81283 | -6.93536 | 36933 ft | 404 kts | 217° |
| 2026-04-29 12:17 | 33.76594 | -6.97274 | 36939 ft | 404 kts | 217° |
| 2026-04-29 12:17 | 33.71910 | -7.01004 | 36950 ft | 404 kts | 217° |
| 2026-04-29 12:18 | 33.67249 | -7.04711 | 36953 ft | 404 kts | 217° |
| 2026-04-29 12:18 | 33.62525 | -7.08463 | 36956 ft | 404 kts | 216° |
| 2026-04-29 12:19 | 33.57867 | -7.12158 | 36959 ft | 405 kts | 216° |
| 2026-04-29 12:19 | 33.53174 | -7.15876 | 36957 ft | 405 kts | 216° |
| 2026-04-29 12:20 | 33.48469 | -7.19597 | 36956 ft | 405 kts | 216° |
| 2026-04-29 12:20 | 33.43773 | -7.23308 | 36951 ft | 405 kts | 216° |
| 2026-04-29 12:21 | 33.39073 | -7.27017 | 36948 ft | 405 kts | 216° |
| 2026-04-29 12:21 | 33.34364 | -7.30727 | 36954 ft | 405 kts | 216° |
| 2026-04-29 12:22 | 33.29657 | -7.34431 | 36952 ft | 405 kts | 216° |
| 2026-04-29 12:22 | 33.24941 | -7.38138 | 36957 ft | 405 kts | 216° |
| 2026-04-29 12:23 | 33.20229 | -7.41836 | 36955 ft | 405 kts | 216° |
| 2026-04-29 12:23 | 33.15516 | -7.45531 | 36958 ft | 405 kts | 216° |
| 2026-04-29 12:24 | 33.10827 | -7.49201 | 36956 ft | 406 kts | 216° |
| 2026-04-29 12:24 | 33.06075 | -7.52916 | 36958 ft | 406 kts | 216° |
| 2026-04-29 12:25 | 33.01380 | -7.56582 | 36956 ft | 406 kts | 216° |
| 2026-04-29 12:26 | 32.94292 | -7.62108 | 36952 ft | 406 kts | 216° |
| 2026-04-29 12:26 | 32.89564 | -7.65788 | 36952 ft | 406 kts | 215° |
| 2026-04-29 12:27 | 32.84789 | -7.69393 | 36953 ft | 407 kts | 212° |
| 2026-04-29 12:27 | 32.79868 | -7.72744 | 36954 ft | 407 kts | 212° |
| 2026-04-29 12:28 | 32.74961 | -7.76121 | 36953 ft | 408 kts | 212° |
| 2026-04-29 12:28 | 32.70059 | -7.79496 | 36947 ft | 408 kts | 212° |
| 2026-04-29 12:29 | 32.65144 | -7.82876 | 36950 ft | 408 kts | 212° |
| 2026-04-29 12:29 | 32.60260 | -7.86230 | 36952 ft | 408 kts | 212° |
| 2026-04-29 12:30 | 32.55346 | -7.89601 | 36950 ft | 408 kts | 212° |
| 2026-04-29 12:30 | 32.50427 | -7.92971 | 36950 ft | 409 kts | 212° |
| 2026-04-29 12:31 | 32.45505 | -7.96338 | 36945 ft | 409 kts | 212° |
| 2026-04-29 12:31 | 32.40575 | -7.99706 | 36953 ft | 409 kts | 212° |
| 2026-04-29 12:32 | 32.35640 | -8.03074 | 36946 ft | 409 kts | 212° |
| 2026-04-29 12:32 | 32.30737 | -8.06416 | 36960 ft | 409 kts | 212° |
| 2026-04-29 12:33 | 32.25771 | -8.09797 | 36942 ft | 410 kts | 212° |
| 2026-04-29 12:33 | 32.20860 | -8.13136 | 36946 ft | 410 kts | 212° |
| 2026-04-29 12:34 | 32.15889 | -8.16511 | 36933 ft | 410 kts | 212° |
| 2026-04-29 12:34 | 32.10968 | -8.19847 | 36934 ft | 410 kts | 212° |
| 2026-04-29 12:35 | 32.06008 | -8.23206 | 36951 ft | 411 kts | 212° |
| 2026-04-29 12:35 | 32.01048 | -8.26562 | 36949 ft | 411 kts | 212° |
| 2026-04-29 12:36 | 31.96084 | -8.29915 | 36949 ft | 411 kts | 212° |
| 2026-04-29 12:36 | 31.91121 | -8.33264 | 36950 ft | 411 kts | 212° |
| 2026-04-29 12:37 | 31.86161 | -8.36606 | 36948 ft | 412 kts | 212° |
| 2026-04-29 12:37 | 31.81184 | -8.39956 | 36950 ft | 412 kts | 212° |
| 2026-04-29 12:38 | 31.76211 | -8.43299 | 36951 ft | 412 kts | 212° |
| 2026-04-29 12:38 | 31.72081 | -8.46072 | 36949 ft | 412 kts | 212° |
| 2026-04-29 12:39 | 31.67097 | -8.49414 | 36949 ft | 412 kts | 212° |
| 2026-04-29 12:39 | 31.62114 | -8.52752 | 36949 ft | 413 kts | 212° |
| 2026-04-29 12:40 | 31.57126 | -8.56088 | 36945 ft | 413 kts | 212° |
| 2026-04-29 12:40 | 31.52128 | -8.59428 | 36951 ft | 413 kts | 212° |
| 2026-04-29 12:41 | 31.47133 | -8.62761 | 36955 ft | 413 kts | 212° |
| 2026-04-29 12:41 | 31.42138 | -8.66091 | 36953 ft | 413 kts | 212° |
| 2026-04-29 12:42 | 31.37138 | -8.69418 | 36955 ft | 414 kts | 212° |
| 2026-04-29 12:42 | 31.32162 | -8.72726 | 36950 ft | 414 kts | 212° |
| 2026-04-29 12:43 | 31.27120 | -8.76075 | 36950 ft | 414 kts | 212° |
| 2026-04-29 12:43 | 31.22113 | -8.79395 | 36958 ft | 414 kts | 212° |
| 2026-04-29 12:44 | 31.17096 | -8.82718 | 36955 ft | 414 kts | 212° |
| 2026-04-29 12:44 | 31.12122 | -8.86009 | 36953 ft | 414 kts | 212° |
| 2026-04-29 12:45 | 31.07105 | -8.89325 | 36952 ft | 414 kts | 212° |
| 2026-04-29 12:45 | 31.02090 | -8.92634 | 36957 ft | 414 kts | 212° |
| 2026-04-29 12:46 | 30.97065 | -8.95946 | 36949 ft | 415 kts | 212° |
| 2026-04-29 12:46 | 30.92046 | -8.99250 | 36955 ft | 415 kts | 212° |
| 2026-04-29 12:47 | 30.87017 | -9.02557 | 36950 ft | 415 kts | 212° |
| 2026-04-29 12:47 | 30.81991 | -9.05858 | 36944 ft | 415 kts | 212° |
| 2026-04-29 12:48 | 30.76967 | -9.09153 | 36940 ft | 415 kts | 212° |
| 2026-04-29 12:48 | 30.71934 | -9.12451 | 36935 ft | 415 kts | 212° |
| 2026-04-29 12:49 | 30.66939 | -9.15720 | 36935 ft | 415 kts | 212° |
| 2026-04-29 12:49 | 30.61900 | -9.19017 | 37108 ft | 422 kts | 210° |
| 2026-04-29 12:49 | 30.59309 | -9.20706 | 36985 ft | 428 kts | 209° |
| 2026-04-29 12:50 | 30.56706 | -9.22404 | 37012 ft | 432 kts | 209° |
| 2026-04-29 12:50 | 30.51423 | -9.25849 | 37001 ft | 440 kts | 209° |
| 2026-04-29 12:51 | 30.46031 | -9.29361 | 36996 ft | 447 kts | 209° |
| 2026-04-29 12:51 | 30.40606 | -9.32889 | 37000 ft | 448 kts | 209° |
| 2026-04-29 12:52 | 30.35185 | -9.36446 | 36996 ft | 448 kts | 213° |
| 2026-04-29 12:52 | 30.32812 | -9.38764 | 36999 ft | 446 kts | 230° |
| 2026-04-29 12:52 | 30.31084 | -9.41725 | 37003 ft | 446 kts | 243° |
| 2026-04-29 12:53 | 30.28379 | -9.48163 | 37001 ft | 448 kts | 244° |
| 2026-04-29 12:53 | 30.25734 | -9.54729 | 37000 ft | 448 kts | 245° |
| 2026-04-29 12:54 | 30.23133 | -9.61280 | 37000 ft | 448 kts | 245° |
| 2026-04-29 12:54 | 30.20533 | -9.67834 | 37000 ft | 448 kts | 245° |
| 2026-04-29 12:55 | 30.17949 | -9.74336 | 37000 ft | 448 kts | 245° |
| 2026-04-29 12:55 | 30.15347 | -9.80873 | 37000 ft | 448 kts | 245° |
| 2026-04-29 12:56 | 30.12745 | -9.87399 | 37000 ft | 448 kts | 245° |
| 2026-04-29 12:56 | 30.10136 | -9.93930 | 37000 ft | 448 kts | 245° |
| 2026-04-29 12:57 | 30.07518 | -10.00472 | 37000 ft | 448 kts | 245° |
| 2026-04-29 12:57 | 30.04906 | -10.06989 | 37000 ft | 448 kts | 245° |
| 2026-04-29 12:58 | 30.02287 | -10.13509 | 37000 ft | 448 kts | 245° |
| 2026-04-29 12:58 | 29.99667 | -10.20024 | 37000 ft | 448 kts | 245° |
| 2026-04-29 12:59 | 29.97040 | -10.26542 | 37000 ft | 448 kts | 245° |
| 2026-04-29 12:59 | 29.94416 | -10.33043 | 37000 ft | 448 kts | 245° |
| 2026-04-29 13:00 | 29.91799 | -10.39512 | 37000 ft | 448 kts | 245° |
| 2026-04-29 13:00 | 29.89164 | -10.46017 | 37000 ft | 448 kts | 245° |
| 2026-04-29 13:01 | 29.86530 | -10.52509 | 37000 ft | 447 kts | 245° |
| 2026-04-29 13:01 | 29.83889 | -10.59005 | 37000 ft | 447 kts | 245° |
| 2026-04-29 13:01 | 29.82569 | -10.62248 | 36660 ft | 447 kts | 245° |
| 2026-04-29 13:02 | 29.81277 | -10.65421 | 37280 ft | 419 kts | 246° |
| 2026-04-29 13:02 | 29.80055 | -10.68418 | 37646 ft | 411 kts | 246° |
| 2026-04-29 13:02 | 29.78849 | -10.71372 | 37431 ft | 403 kts | 246° |
| 2026-04-29 13:02 | 29.77665 | -10.74274 | 37197 ft | 399 kts | 246° |
| 2026-04-29 13:03 | 29.76488 | -10.77152 | 37001 ft | 398 kts | 246° |
| 2026-04-29 13:03 | 29.74124 | -10.82931 | 36976 ft | 400 kts | 246° |
| 2026-04-29 13:04 | 29.71753 | -10.88716 | 36978 ft | 399 kts | 246° |
| 2026-04-29 13:04 | 29.69386 | -10.94485 | 36976 ft | 399 kts | 246° |
| 2026-04-29 13:05 | 29.67016 | -11.00251 | 36973 ft | 399 kts | 246° |
| 2026-04-29 13:05 | 29.64638 | -11.06027 | 36977 ft | 399 kts | 246° |
| 2026-04-29 13:06 | 29.62261 | -11.11792 | 36976 ft | 399 kts | 246° |
| 2026-04-29 13:06 | 29.59900 | -11.17511 | 36979 ft | 399 kts | 246° |
| 2026-04-29 13:07 | 29.57522 | -11.23260 | 36979 ft | 399 kts | 246° |
| 2026-04-29 13:07 | 29.55139 | -11.29016 | 36980 ft | 398 kts | 246° |
| 2026-04-29 13:08 | 29.52762 | -11.34747 | 36981 ft | 398 kts | 245° |
| 2026-04-29 13:08 | 29.50381 | -11.40478 | 36982 ft | 398 kts | 245° |
| 2026-04-29 13:09 | 29.47997 | -11.46209 | 36986 ft | 398 kts | 245° |
| 2026-04-29 13:09 | 29.45611 | -11.51935 | 36984 ft | 397 kts | 245° |
| 2026-04-29 13:10 | 29.43227 | -11.57649 | 36983 ft | 397 kts | 245° |
| 2026-04-29 13:10 | 29.40840 | -11.63360 | 36981 ft | 397 kts | 245° |
| 2026-04-29 13:11 | 29.38452 | -11.69068 | 36986 ft | 397 kts | 245° |
| 2026-04-29 13:11 | 29.36064 | -11.74764 | 36982 ft | 396 kts | 245° |
| 2026-04-29 13:12 | 29.33674 | -11.80458 | 36989 ft | 396 kts | 245° |
| 2026-04-29 13:12 | 29.31296 | -11.86116 | 36988 ft | 396 kts | 245° |
| 2026-04-29 13:13 | 29.28902 | -11.91802 | 36989 ft | 396 kts | 245° |
| 2026-04-29 13:13 | 29.26490 | -11.97521 | 36988 ft | 396 kts | 245° |
| 2026-04-29 13:14 | 29.24111 | -12.03156 | 36991 ft | 396 kts | 245° |
| 2026-04-29 13:14 | 29.21715 | -12.08824 | 36989 ft | 396 kts | 245° |
| 2026-04-29 13:15 | 29.19313 | -12.14494 | 36991 ft | 395 kts | 245° |
| 2026-04-29 13:15 | 29.16910 | -12.20161 | 36990 ft | 396 kts | 245° |
| 2026-04-29 13:16 | 29.14510 | -12.25811 | 36992 ft | 396 kts | 244° |
| 2026-04-29 13:16 | 29.12101 | -12.31475 | 36994 ft | 395 kts | 244° |
| 2026-04-29 13:17 | 29.09691 | -12.37134 | 36991 ft | 396 kts | 244° |
| 2026-04-29 13:17 | 29.07296 | -12.42747 | 36992 ft | 396 kts | 244° |
| 2026-04-29 13:18 | 29.04864 | -12.48439 | 36994 ft | 396 kts | 244° |
| 2026-04-29 13:18 | 29.02465 | -12.54051 | 36995 ft | 396 kts | 244° |
| 2026-04-29 13:19 | 29.00044 | -12.59704 | 36995 ft | 396 kts | 244° |
| 2026-04-29 13:19 | 28.97625 | -12.65346 | 36992 ft | 396 kts | 244° |
| 2026-04-29 13:20 | 28.95200 | -12.70994 | 36994 ft | 396 kts | 244° |
| 2026-04-29 13:20 | 28.92773 | -12.76637 | 36995 ft | 396 kts | 244° |
| 2026-04-29 13:21 | 28.90283 | -12.82237 | 36992 ft | 396 kts | 241° |
| 2026-04-29 13:21 | 28.87592 | -12.87730 | 36993 ft | 396 kts | 241° |
| 2026-04-29 13:22 | 28.84928 | -12.93220 | 36995 ft | 396 kts | 241° |
| 2026-04-29 13:22 | 28.82258 | -12.98723 | 36995 ft | 396 kts | 241° |
| 2026-04-29 13:23 | 28.79593 | -13.04208 | 36997 ft | 396 kts | 241° |
| 2026-04-29 13:23 | 28.76939 | -13.09663 | 36994 ft | 396 kts | 241° |
| 2026-04-29 13:24 | 28.74268 | -13.15147 | 36996 ft | 396 kts | 241° |
| 2026-04-29 13:24 | 28.71596 | -13.20626 | 36996 ft | 396 kts | 241° |
| 2026-04-29 13:25 | 28.68904 | -13.26138 | 36997 ft | 396 kts | 241° |
| 2026-04-29 13:25 | 28.64909 | -13.34306 | 36997 ft | 395 kts | 241° |
| 2026-04-29 13:26 | 28.62235 | -13.39763 | 36996 ft | 395 kts | 241° |
| 2026-04-29 13:26 | 28.59554 | -13.45227 | 36997 ft | 395 kts | 241° |
| 2026-04-29 13:27 | 28.56875 | -13.50679 | 36999 ft | 395 kts | 241° |
| 2026-04-29 13:27 | 28.54195 | -13.56127 | 37005 ft | 395 kts | 241° |
| 2026-04-29 13:28 | 28.51508 | -13.61581 | 37007 ft | 395 kts | 241° |
| 2026-04-29 13:28 | 28.48822 | -13.67029 | 37013 ft | 395 kts | 240° |
| 2026-04-29 13:29 | 28.46139 | -13.72461 | 37019 ft | 394 kts | 240° |
| 2026-04-29 13:29 | 28.43452 | -13.77893 | 37022 ft | 394 kts | 240° |
| 2026-04-29 13:30 | 28.40766 | -13.83317 | 37020 ft | 394 kts | 240° |
| 2026-04-29 13:30 | 28.38077 | -13.88740 | 37018 ft | 393 kts | 240° |
| 2026-04-29 13:31 | 28.35410 | -13.94113 | 37016 ft | 393 kts | 240° |
| 2026-04-29 13:31 | 28.32707 | -13.99548 | 37014 ft | 393 kts | 240° |
| 2026-04-29 13:32 | 28.30020 | -14.04947 | 37013 ft | 392 kts | 240° |
| 2026-04-29 13:32 | 28.27792 | -14.09419 | 37007 ft | 392 kts | 240° |
| 2026-04-29 13:33 | 28.24667 | -14.15680 | 36999 ft | 392 kts | 240° |
| 2026-04-29 13:33 | 28.21983 | -14.21053 | 37002 ft | 392 kts | 240° |
| 2026-04-29 13:34 | 28.19296 | -14.26422 | 37000 ft | 392 kts | 240° |
| 2026-04-29 13:34 | 28.17061 | -14.30883 | 37001 ft | 392 kts | 240° |
| 2026-04-29 13:35 | 28.14371 | -14.36248 | 37000 ft | 391 kts | 240° |
| 2026-04-29 13:35 | 28.11679 | -14.41608 | 37003 ft | 391 kts | 240° |
| 2026-04-29 13:36 | 28.08989 | -14.46959 | 36998 ft | 391 kts | 240° |
| 2026-04-29 13:36 | 28.06294 | -14.52313 | 36999 ft | 391 kts | 240° |
| 2026-04-29 13:37 | 28.03610 | -14.57641 | 37003 ft | 391 kts | 240° |
| 2026-04-29 13:37 | 28.00919 | -14.62977 | 37006 ft | 390 kts | 241° |
| 2026-04-29 13:38 | 27.99866 | -14.65799 | 37003 ft | 390 kts | 255° |
| 2026-04-29 13:38 | 27.99210 | -14.68788 | 36996 ft | 391 kts | 253° |
| 2026-04-29 13:38 | 27.97858 | -14.74746 | 37005 ft | 391 kts | 254° |
| 2026-04-29 13:39 | 27.96560 | -14.80680 | 37006 ft | 391 kts | 254° |
| 2026-04-29 13:39 | 27.95266 | -14.86642 | 37009 ft | 391 kts | 254° |
| 2026-04-29 13:40 | 27.93967 | -14.92618 | 37006 ft | 391 kts | 254° |
| 2026-04-29 13:40 | 27.92697 | -14.98448 | 36849 ft | 369 kts | 254° |
| 2026-04-29 13:41 | 27.92090 | -15.01231 | 36580 ft | 361 kts | 254° |
| 2026-04-29 13:41 | 27.91489 | -15.03981 | 36115 ft | 360 kts | 254° |
| 2026-04-29 13:41 | 27.90887 | -15.06734 | 35594 ft | 362 kts | 254° |
| 2026-04-29 13:41 | 27.90281 | -15.09506 | 35124 ft | 361 kts | 254° |
| 2026-04-29 13:42 | 27.89680 | -15.12249 | 34746 ft | 359 kts | 254° |
| 2026-04-29 13:42 | 27.89080 | -15.14986 | 34523 ft | 359 kts | 254° |
| 2026-04-29 13:42 | 27.88479 | -15.17725 | 34188 ft | 357 kts | 254° |
| 2026-04-29 13:42 | 27.87883 | -15.20433 | 33682 ft | 355 kts | 254° |
| 2026-04-29 13:43 | 27.87287 | -15.23145 | 33157 ft | 354 kts | 253° |
| 2026-04-29 13:43 | 27.86698 | -15.25820 | 32750 ft | 349 kts | 253° |
| 2026-04-29 13:43 | 27.86117 | -15.28456 | 32414 ft | 342 kts | 253° |
| 2026-04-29 13:43 | 27.85544 | -15.31053 | 32013 ft | 340 kts | 253° |
| 2026-04-29 13:44 | 27.84971 | -15.33650 | 31554 ft | 342 kts | 253° |
| 2026-04-29 13:44 | 27.84395 | -15.36261 | 31105 ft | 342 kts | 253° |
| 2026-04-29 13:44 | 27.83820 | -15.38861 | 30665 ft | 340 kts | 253° |
| 2026-04-29 13:44 | 27.83248 | -15.41452 | 30218 ft | 339 kts | 254° |
| 2026-04-29 13:45 | 27.82991 | -15.44110 | 29624 ft | 346 kts | 270° |
| 2026-04-29 13:45 | 27.83237 | -15.46801 | 29175 ft | 343 kts | 270° |
| 2026-04-29 13:45 | 27.83437 | -15.49465 | 28773 ft | 338 kts | 271° |
| 2026-04-29 13:45 | 27.83649 | -15.52109 | 28364 ft | 334 kts | 271° |
| 2026-04-29 13:46 | 27.83865 | -15.54695 | 27955 ft | 331 kts | 271° |
| 2026-04-29 13:46 | 27.84086 | -15.57276 | 27552 ft | 328 kts | 271° |
| 2026-04-29 13:46 | 27.84306 | -15.59831 | 27148 ft | 325 kts | 272° |
| 2026-04-29 13:46 | 27.84525 | -15.62362 | 26743 ft | 323 kts | 272° |
| 2026-04-29 13:47 | 27.84743 | -15.64893 | 26355 ft | 325 kts | 272° |
| 2026-04-29 13:47 | 27.84963 | -15.67438 | 25934 ft | 325 kts | 272° |
| 2026-04-29 13:47 | 27.85181 | -15.69976 | 25574 ft | 324 kts | 272° |
| 2026-04-29 13:47 | 27.85398 | -15.72495 | 25184 ft | 322 kts | 272° |
| 2026-04-29 13:48 | 27.85614 | -15.75022 | 24803 ft | 322 kts | 273° |
| 2026-04-29 13:48 | 27.85829 | -15.77529 | 24419 ft | 322 kts | 273° |
| 2026-04-29 13:48 | 27.86044 | -15.80050 | 24035 ft | 322 kts | 273° |
| 2026-04-29 13:48 | 27.86259 | -15.82563 | 23651 ft | 321 kts | 273° |
| 2026-04-29 13:49 | 27.86469 | -15.85039 | 23213 ft | 319 kts | 273° |
| 2026-04-29 13:49 | 27.86681 | -15.87549 | 22792 ft | 316 kts | 273° |
| 2026-04-29 13:49 | 27.86889 | -15.90006 | 22408 ft | 312 kts | 273° |
| 2026-04-29 13:49 | 27.87094 | -15.92434 | 22041 ft | 308 kts | 273° |
| 2026-04-29 13:50 | 27.87294 | -15.94802 | 21681 ft | 304 kts | 273° |
| 2026-04-29 13:50 | 27.87493 | -15.97163 | 21323 ft | 301 kts | 272° |
| 2026-04-29 13:50 | 27.87690 | -15.99505 | 20967 ft | 299 kts | 272° |
| 2026-04-29 13:50 | 27.87886 | -16.01846 | 20610 ft | 301 kts | 272° |
| 2026-04-29 13:51 | 27.88084 | -16.04217 | 20247 ft | 303 kts | 272° |
| 2026-04-29 13:51 | 27.88281 | -16.06583 | 19888 ft | 303 kts | 272° |
| 2026-04-29 13:51 | 27.88478 | -16.08949 | 19519 ft | 303 kts | 272° |
| 2026-04-29 13:51 | 27.88674 | -16.11311 | 19163 ft | 303 kts | 272° |
| 2026-04-29 13:52 | 27.88871 | -16.13679 | 18805 ft | 302 kts | 272° |
| 2026-04-29 13:52 | 27.89066 | -16.16042 | 18442 ft | 301 kts | 272° |
| 2026-04-29 13:52 | 27.89261 | -16.18394 | 18052 ft | 299 kts | 272° |
| 2026-04-29 13:52 | 27.89453 | -16.20724 | 17654 ft | 296 kts | 272° |
| 2026-04-29 13:53 | 27.89643 | -16.23026 | 17289 ft | 293 kts | 272° |
| 2026-04-29 13:53 | 27.89822 | -16.25300 | 16922 ft | 289 kts | 270° |
| 2026-04-29 13:53 | 27.89521 | -16.27508 | 16511 ft | 283 kts | 249° |
| 2026-04-29 13:53 | 27.88803 | -16.29558 | 16193 ft | 279 kts | 248° |
| 2026-04-29 13:54 | 27.88083 | -16.31594 | 15859 ft | 279 kts | 248° |
| 2026-04-29 13:54 | 27.87344 | -16.33636 | 15516 ft | 282 kts | 247° |
| 2026-04-29 13:54 | 27.86593 | -16.35684 | 15171 ft | 284 kts | 247° |
| 2026-04-29 13:54 | 27.85830 | -16.37744 | 14805 ft | 284 kts | 247° |
| 2026-04-29 13:55 | 27.85066 | -16.39796 | 14463 ft | 283 kts | 247° |
| 2026-04-29 13:55 | 27.84309 | -16.41820 | 14114 ft | 282 kts | 247° |
| 2026-04-29 13:55 | 27.83549 | -16.43851 | 13740 ft | 280 kts | 248° |
| 2026-04-29 13:55 | 27.82793 | -16.45866 | 13358 ft | 278 kts | 247° |
| 2026-04-29 13:56 | 27.82041 | -16.47871 | 12995 ft | 275 kts | 247° |
| 2026-04-29 13:56 | 27.81295 | -16.49855 | 12645 ft | 272 kts | 247° |
| 2026-04-29 13:56 | 27.80561 | -16.51808 | 12317 ft | 269 kts | 247° |
| 2026-04-29 13:56 | 27.79836 | -16.53740 | 11964 ft | 267 kts | 247° |
| 2026-04-29 13:57 | 27.79112 | -16.55664 | 11613 ft | 265 kts | 247° |
| 2026-04-29 13:57 | 27.78387 | -16.57591 | 11307 ft | 268 kts | 247° |
| 2026-04-29 13:57 | 27.77654 | -16.59538 | 10994 ft | 270 kts | 247° |
| 2026-04-29 13:57 | 27.76920 | -16.61489 | 10654 ft | 270 kts | 247° |
| 2026-04-29 13:58 | 27.76187 | -16.63433 | 10380 ft | 267 kts | 247° |
| 2026-04-29 13:58 | 27.75474 | -16.65327 | 10233 ft | 257 kts | 247° |
| 2026-04-29 13:58 | 27.74788 | -16.67144 | 10091 ft | 248 kts | 247° |
| 2026-04-29 13:58 | 27.74377 | -16.69001 | 9796 ft | 244 kts | 270° |
| 2026-04-29 13:59 | 27.74810 | -16.70843 | 9426 ft | 246 kts | 298° |
| 2026-04-29 13:59 | 27.75923 | -16.72301 | 9124 ft | 246 kts | 314° |
| 2026-04-29 13:59 | 27.77163 | -16.73634 | 8823 ft | 248 kts | 313° |
| 2026-04-29 13:59 | 27.78423 | -16.74984 | 8507 ft | 250 kts | 314° |
| 2026-04-29 14:00 | 27.79687 | -16.76326 | 8175 ft | 249 kts | 314° |
| 2026-04-29 14:00 | 27.80930 | -16.77642 | 7878 ft | 248 kts | 314° |
| 2026-04-29 14:00 | 27.82202 | -16.78984 | 7555 ft | 247 kts | 314° |
| 2026-04-29 14:00 | 27.83440 | -16.80288 | 7243 ft | 245 kts | 315° |
| 2026-04-29 14:01 | 27.84616 | -16.81657 | 6963 ft | 239 kts | 301° |
| 2026-04-29 14:01 | 27.85134 | -16.83370 | 6797 ft | 230 kts | 271° |
| 2026-04-29 14:01 | 27.84880 | -16.85117 | 6690 ft | 223 kts | 250° |
| 2026-04-29 14:01 | 27.84337 | -16.86736 | 6575 ft | 219 kts | 249° |
| 2026-04-29 14:02 | 27.83782 | -16.88331 | 6466 ft | 218 kts | 248° |
| 2026-04-29 14:02 | 27.83214 | -16.89918 | 6347 ft | 217 kts | 248° |
| 2026-04-29 14:02 | 27.82637 | -16.91499 | 6232 ft | 217 kts | 248° |
| 2026-04-29 14:02 | 27.82056 | -16.93075 | 6107 ft | 217 kts | 247° |
| 2026-04-29 14:03 | 27.81473 | -16.94645 | 5980 ft | 217 kts | 247° |
| 2026-04-29 14:03 | 27.80884 | -16.96220 | 5858 ft | 217 kts | 247° |
| 2026-04-29 14:03 | 27.80298 | -16.97783 | 5738 ft | 217 kts | 247° |
| 2026-04-29 14:03 | 27.79710 | -16.99349 | 5614 ft | 216 kts | 246° |
| 2026-04-29 14:04 | 27.79120 | -17.00912 | 5501 ft | 216 kts | 246° |
| 2026-04-29 14:04 | 27.78534 | -17.02469 | 5381 ft | 216 kts | 246° |
| 2026-04-29 14:04 | 27.77946 | -17.04028 | 5256 ft | 216 kts | 246° |
| 2026-04-29 14:04 | 27.77363 | -17.05593 | 5135 ft | 216 kts | 250° |
| 2026-04-29 14:05 | 27.77206 | -17.07247 | 4997 ft | 215 kts | 279° |
| 2026-04-29 14:05 | 27.77789 | -17.08799 | 4969 ft | 218 kts | 306° |
| 2026-04-29 14:05 | 27.78936 | -17.09919 | 4994 ft | 222 kts | 331° |
| 2026-04-29 14:05 | 27.80402 | -17.10370 | 4983 ft | 224 kts | 0° |
| 2026-04-29 14:06 | 27.81917 | -17.09931 | 5002 ft | 225 kts | 27° |
| 2026-04-29 14:06 | 27.83215 | -17.08961 | 4986 ft | 228 kts | 40° |
| 2026-04-29 14:06 | 27.84358 | -17.07715 | 4780 ft | 228 kts | 50° |
| 2026-04-29 14:06 | 27.85293 | -17.06296 | 4634 ft | 226 kts | 56° |
| 2026-04-29 14:07 | 27.86146 | -17.04807 | 4497 ft | 225 kts | 59° |
| 2026-04-29 14:07 | 27.86930 | -17.03285 | 4370 ft | 224 kts | 62° |
| 2026-04-29 14:07 | 27.87661 | -17.01723 | 4240 ft | 224 kts | 64° |
| 2026-04-29 14:07 | 27.88345 | -17.00147 | 4171 ft | 222 kts | 65° |
| 2026-04-29 14:08 | 27.88987 | -16.98592 | 4019 ft | 214 kts | 66° |
| 2026-04-29 14:08 | 27.89586 | -16.97086 | 3893 ft | 206 kts | 67° |
| 2026-04-29 14:08 | 27.90164 | -16.95606 | 3771 ft | 206 kts | 67° |
| 2026-04-29 14:08 | 27.90740 | -16.94114 | 3641 ft | 206 kts | 68° |
| 2026-04-29 14:09 | 27.91306 | -16.92629 | 3508 ft | 206 kts | 68° |
| 2026-04-29 14:09 | 27.91871 | -16.91143 | 3388 ft | 205 kts | 68° |
| 2026-04-29 14:09 | 27.92433 | -16.89656 | 3261 ft | 205 kts | 67° |
| 2026-04-29 14:09 | 27.92991 | -16.88173 | 3138 ft | 205 kts | 68° |
| 2026-04-29 14:10 | 27.93544 | -16.86709 | 3006 ft | 205 kts | 66° |
| 2026-04-29 14:10 | 27.94146 | -16.85233 | 2868 ft | 204 kts | 65° |
| 2026-04-29 14:10 | 27.94737 | -16.83798 | 2750 ft | 203 kts | 65° |
| 2026-04-29 14:10 | 27.95329 | -16.82354 | 2617 ft | 203 kts | 65° |
| 2026-04-29 14:11 | 27.95926 | -16.80892 | 2522 ft | 202 kts | 66° |
| 2026-04-29 14:11 | 27.96509 | -16.79466 | 2422 ft | 202 kts | 66° |
| 2026-04-29 14:11 | 27.97097 | -16.78022 | 2326 ft | 202 kts | 66° |
| 2026-04-29 14:11 | 27.97684 | -16.76578 | 2209 ft | 202 kts | 67° |
| 2026-04-29 14:12 | 27.98206 | -16.75117 | 2111 ft | 201 kts | 70° |
| 2026-04-29 14:12 | 27.98721 | -16.73641 | 2090 ft | 202 kts | 70° |
| 2026-04-29 14:12 | 27.99241 | -16.72161 | 2107 ft | 203 kts | 69° |
| 2026-04-29 14:12 | 27.99761 | -16.70679 | 2095 ft | 202 kts | 69° |
| 2026-04-29 14:13 | 28.00260 | -16.69253 | 2112 ft | 187 kts | 69° |
| 2026-04-29 14:13 | 28.00725 | -16.67917 | 1921 ft | 177 kts | 70° |
| 2026-04-29 14:13 | 28.01157 | -16.66680 | 1722 ft | 162 kts | 69° |
| 2026-04-29 14:13 | 28.01555 | -16.65542 | 1522 ft | 148 kts | 70° |
| 2026-04-29 14:14 | 28.01924 | -16.64489 | 1324 ft | 143 kts | 71° |
| 2026-04-29 14:14 | 28.02291 | -16.63434 | 1128 ft | 144 kts | 71° |
| 2026-04-29 14:14 | 28.02656 | -16.62388 | 933 ft | 143 kts | 70° |
| 2026-04-29 14:14 | 28.03022 | -16.61339 | 729 ft | 142 kts | 71° |
| 2026-04-29 14:15 | 28.03387 | -16.60297 | 539 ft | 143 kts | 70° |
| 2026-04-29 14:15 | 28.03742 | -16.59268 | 382 ft | 140 kts | 70° |
| 2026-04-29 14:15 | 28.04102 | -16.58243 | 214 ft | 132 kts | 69° |
| 2026-04-29 14:15 | 28.04388 | -16.57422 | 195 ft | 60 kts | 69° |
| 2026-04-29 14:16 | 28.04484 | -16.57149 | 201 ft | 27 kts | 63° |
| 2026-04-29 14:16 | 28.04569 | -16.56989 | 205 ft | 20 kts | 51° |
| 2026-04-29 14:16 | 28.04658 | -16.56879 | 211 ft | 17 kts | 50° |
| 2026-04-29 14:16 | 28.04712 | -16.56808 | 222 ft | 10 kts | 39° |
| 2026-04-29 14:17 | 28.04759 | -16.56802 | 221 ft | 6 kts | 336° |
| 2026-04-29 14:17 | 28.04779 | -16.56847 | 221 ft | 8 kts | 262° |
| 2026-04-29 14:17 | 28.04755 | -16.56911 | 223 ft | 10 kts | 247° |